createdAt,value
2023-05-21T00:01:03.135Z,19.23
2023-05-21T00:03:30.874Z,19.13
2023-05-21T00:05:57.260Z,17.03
2023-05-21T00:08:23.871Z,19.00
2023-05-21T00:10:50.157Z,18.27
2023-05-21T00:13:16.508Z,15.97
2023-05-21T00:15:42.900Z,21.57
2023-05-21T00:18:09.313Z,16.30
2023-05-21T00:20:35.659Z,16.33
2023-05-21T00:23:05.263Z,17.40
2023-05-21T00:25:31.583Z,19.03
2023-05-21T00:27:58.270Z,21.37
2023-05-21T00:30:24.577Z,20.30
2023-05-21T00:32:50.934Z,19.00
2023-05-21T00:35:17.352Z,21.57
2023-05-21T00:37:43.707Z,20.13
2023-05-21T00:40:11.474Z,19.87
2023-05-21T00:42:40.566Z,19.50
2023-05-21T00:45:07.820Z,19.20
2023-05-21T00:47:34.577Z,19.03
2023-05-21T00:50:02.004Z,18.73
2023-05-21T00:52:28.631Z,19.00
2023-05-21T00:54:55.017Z,17.67
2023-05-21T00:57:22.748Z,21.67
2023-05-21T00:59:50.846Z,17.27
2023-05-21T01:02:18.407Z,20.63
2023-05-21T01:04:45.304Z,20.13
2023-05-21T01:07:12.534Z,18.37
2023-05-21T01:09:39.665Z,19.40
2023-05-21T01:12:06.462Z,21.10
2023-05-21T01:14:34.739Z,18.73
2023-05-21T01:17:02.246Z,20.10
2023-05-21T01:19:28.882Z,19.83
2023-05-21T01:21:57.633Z,21.13
2023-05-21T01:24:24.052Z,16.63
2023-05-21T01:26:50.366Z,19.43
2023-05-21T01:29:16.768Z,19.17
2023-05-21T01:31:52.172Z,21.50
2023-05-21T01:34:20.957Z,18.43
2023-05-21T01:37:01.204Z,19.67
2023-05-21T01:39:33.756Z,21.00
2023-05-21T01:42:00.521Z,19.57
2023-05-21T01:44:27.268Z,18.53
2023-05-21T01:46:54.532Z,22.43
2023-05-21T01:49:22.034Z,22.23
2023-05-21T01:51:48.555Z,21.80
2023-05-21T01:54:14.869Z,20.73
2023-05-21T01:56:41.408Z,22.20
2023-05-21T01:59:08.849Z,21.97
2023-05-21T02:01:35.163Z,25.47
2023-05-21T02:04:01.804Z,23.57
2023-05-21T02:06:28.961Z,21.33
2023-05-21T02:08:56.057Z,21.93
2023-05-21T02:11:22.399Z,20.13
2023-05-21T02:13:48.715Z,21.40
2023-05-21T02:16:15.890Z,22.53
2023-05-21T02:18:46.374Z,21.83
2023-05-21T02:21:12.742Z,21.23
2023-05-21T02:23:39.188Z,21.03
2023-05-21T02:26:05.561Z,20.13
2023-05-21T02:28:32.764Z,19.97
2023-05-21T02:30:59.086Z,23.77
2023-05-21T02:33:26.112Z,22.47
2023-05-21T02:35:52.415Z,21.93
2023-05-21T02:38:19.528Z,22.83
2023-05-21T02:40:46.355Z,23.33
2023-05-21T02:43:13.538Z,21.63
2023-05-21T02:45:41.794Z,21.10
2023-05-21T02:48:08.294Z,22.03
2023-05-21T02:50:34.610Z,22.57
2023-05-21T02:53:01.148Z,21.23
2023-05-21T02:55:27.422Z,21.60
2023-05-21T02:57:53.698Z,21.43
2023-05-21T03:00:20.057Z,24.33
2023-05-21T03:02:46.457Z,27.40
2023-05-21T03:05:12.803Z,22.57
2023-05-21T03:07:39.097Z,22.37
2023-05-21T03:10:05.649Z,22.30
2023-05-21T03:12:31.989Z,22.77
2023-05-21T03:14:59.913Z,24.60
2023-05-21T03:17:26.215Z,24.77
2023-05-21T03:19:52.642Z,28.93
2023-05-21T03:22:20.005Z,23.57
2023-05-21T03:24:46.326Z,23.33
2023-05-21T03:27:12.662Z,24.73
2023-05-21T03:29:40.003Z,24.73
2023-05-21T03:32:06.634Z,24.80
2023-05-21T03:34:34.511Z,24.63
2023-05-21T03:37:00.882Z,23.20
2023-05-21T03:39:27.160Z,24.23
2023-05-21T03:41:53.444Z,24.20
2023-05-21T03:44:19.719Z,26.57
2023-05-21T03:46:46.054Z,26.77
2023-05-21T03:49:13.818Z,27.00
2023-05-21T03:51:40.128Z,25.57
2023-05-21T03:54:06.518Z,26.53
2023-05-21T03:56:32.845Z,26.03
2023-05-21T03:58:59.162Z,27.67
2023-05-21T04:01:25.491Z,26.10
2023-05-21T04:03:52.014Z,30.30
2023-05-21T04:06:19.025Z,24.33
2023-05-21T04:08:45.306Z,24.73
2023-05-21T04:11:11.587Z,26.07
2023-05-21T04:13:38.419Z,26.83
2023-05-21T04:16:05.027Z,24.80
2023-05-21T04:18:31.375Z,26.13
2023-05-21T04:20:59.584Z,23.87
2023-05-21T04:23:25.896Z,24.03
2023-05-21T04:25:52.203Z,25.03
2023-05-21T04:28:21.448Z,25.30
2023-05-21T04:30:47.976Z,26.20
2023-05-21T04:33:17.995Z,26.73
2023-05-21T04:35:46.216Z,26.17
2023-05-21T04:38:12.622Z,29.13
2023-05-21T04:40:38.876Z,28.27
2023-05-21T04:43:05.455Z,27.00
2023-05-21T04:45:31.770Z,25.93
2023-05-21T04:48:00.765Z,25.33
2023-05-21T04:50:27.175Z,25.47
2023-05-21T04:52:54.772Z,26.97
2023-05-21T04:55:21.369Z,25.80
2023-05-21T04:57:47.696Z,27.70
2023-05-21T05:00:14.006Z,27.23
2023-05-21T05:02:40.325Z,27.03
2023-05-21T05:05:06.676Z,27.83
2023-05-21T05:07:33.072Z,27.17
2023-05-21T05:09:59.403Z,26.53
2023-05-21T05:12:25.767Z,26.73
2023-05-21T05:14:52.051Z,25.33
2023-05-21T05:17:18.714Z,27.73
2023-05-21T05:19:45.046Z,24.67
2023-05-21T05:22:13.325Z,27.27
2023-05-21T05:24:39.870Z,23.53
2023-05-21T05:27:06.201Z,22.87
2023-05-21T05:29:32.488Z,25.77
2023-05-21T05:31:58.758Z,25.53
2023-05-21T05:34:25.037Z,25.47
2023-05-21T05:36:51.453Z,26.17
2023-05-21T05:39:17.786Z,26.17
2023-05-21T05:41:44.058Z,22.33
2023-05-21T05:44:10.986Z,24.37
2023-05-21T05:46:37.550Z,25.60
2023-05-21T05:49:03.983Z,23.43
2023-05-21T05:51:30.681Z,27.07
2023-05-21T05:53:57.017Z,29.13
2023-05-21T05:56:23.435Z,25.13
2023-05-21T05:58:49.834Z,25.17
2023-05-21T06:01:16.484Z,25.53
2023-05-21T06:03:42.941Z,22.83
2023-05-21T06:06:09.442Z,22.20
2023-05-21T06:08:38.049Z,24.00
2023-05-21T06:11:04.652Z,26.77
2023-05-21T06:13:31.003Z,25.20
2023-05-21T06:15:57.382Z,24.83
2023-05-21T06:18:23.709Z,24.13
2023-05-21T06:20:50.026Z,24.57
2023-05-21T06:23:16.353Z,23.83
2023-05-21T06:25:42.681Z,21.53
2023-05-21T06:28:09.071Z,21.80
2023-05-21T06:30:35.403Z,21.23
2023-05-21T06:33:02.208Z,25.23
2023-05-21T06:35:28.557Z,21.43
2023-05-21T06:37:54.845Z,21.27
2023-05-21T06:40:21.703Z,22.33
2023-05-21T06:42:48.017Z,21.03
2023-05-21T06:45:14.335Z,23.20
2023-05-21T06:47:41.089Z,26.13
2023-05-21T06:50:07.537Z,20.03
2023-05-21T06:52:33.874Z,19.40
2023-05-21T06:55:00.202Z,17.93
2023-05-21T06:57:26.496Z,17.63
2023-05-21T06:59:52.769Z,19.37
2023-05-21T07:02:19.162Z,19.57
2023-05-21T07:04:45.534Z,16.53
2023-05-21T07:07:11.886Z,15.70
2023-05-21T07:09:38.305Z,15.82
2023-05-21T07:12:04.668Z,14.73
2023-05-21T07:14:30.983Z,16.08
2023-05-21T07:16:57.346Z,19.80
2023-05-21T07:19:23.735Z,12.90
2023-05-21T07:21:50.108Z,13.18
2023-05-21T07:24:16.435Z,13.35
2023-05-21T07:26:42.753Z,11.82
2023-05-21T07:29:09.431Z,12.30
2023-05-21T07:31:36.183Z,11.60
2023-05-21T07:34:02.681Z,11.48
2023-05-21T07:36:29.608Z,10.55
2023-05-21T07:38:56.291Z,11.60
2023-05-21T07:41:22.710Z,11.27
2023-05-21T07:43:49.158Z,10.73
2023-05-21T07:46:15.724Z,10.70
2023-05-21T07:48:42.045Z,10.95
2023-05-21T07:51:08.362Z,11.18
2023-05-21T07:53:34.759Z,10.98
2023-05-21T07:56:01.176Z,11.90
2023-05-21T07:58:27.434Z,12.07
2023-05-21T08:00:53.960Z,13.98
2023-05-21T08:03:20.741Z,11.00
2023-05-21T08:05:50.887Z,11.55
2023-05-21T08:08:21.974Z,10.60
2023-05-21T08:10:48.290Z,11.63
2023-05-21T08:13:15.192Z,10.57
2023-05-21T08:15:41.877Z,12.25
2023-05-21T08:18:08.247Z,14.40
2023-05-21T08:20:34.568Z,11.90
2023-05-21T08:23:01.159Z,10.77
2023-05-21T08:25:27.479Z,11.32
2023-05-21T08:27:53.941Z,11.27
2023-05-21T08:30:20.475Z,11.23
2023-05-21T08:32:47.385Z,11.30
2023-05-21T08:35:13.820Z,12.13
2023-05-21T08:37:40.120Z,12.95
2023-05-21T08:40:06.806Z,12.50
2023-05-21T08:42:39.241Z,12.15
2023-05-21T08:45:07.020Z,10.98
2023-05-21T08:47:34.937Z,11.55
2023-05-21T08:50:02.408Z,17.33
2023-05-21T08:52:28.740Z,10.70
2023-05-21T08:54:56.730Z,11.15
2023-05-21T08:57:23.800Z,11.93
2023-05-21T08:59:50.070Z,12.70
2023-05-21T09:02:18.256Z,13.23
2023-05-21T09:04:49.146Z,11.77
2023-05-21T09:07:15.888Z,11.00
2023-05-21T09:09:46.507Z,10.93
2023-05-21T09:12:12.773Z,10.93
2023-05-21T09:14:39.376Z,12.25
2023-05-21T09:17:05.829Z,10.65
2023-05-21T09:19:32.562Z,11.45
2023-05-21T09:22:03.732Z,11.15
2023-05-21T09:24:35.754Z,10.13
2023-05-21T09:27:02.977Z,11.60
2023-05-21T09:29:29.750Z,11.80
2023-05-21T09:31:56.144Z,13.50
2023-05-21T09:34:24.876Z,9.73
2023-05-21T09:36:51.946Z,11.60
2023-05-21T09:39:27.921Z,10.00
2023-05-21T09:41:56.384Z,11.35
2023-05-21T09:44:23.339Z,12.93
2023-05-21T09:46:49.784Z,10.35
2023-05-21T09:49:26.419Z,9.40
2023-05-21T09:51:57.075Z,8.93
2023-05-21T09:54:24.265Z,10.63
2023-05-21T09:56:51.561Z,9.57
2023-05-21T09:59:17.877Z,10.80
2023-05-21T10:01:44.649Z,13.00
2023-05-21T10:04:11.331Z,7.78
2023-05-21T10:06:38.249Z,8.20
2023-05-21T10:09:07.244Z,8.85
2023-05-21T10:11:34.553Z,8.57
2023-05-21T10:14:04.004Z,8.30
2023-05-21T10:16:32.676Z,11.18
2023-05-21T10:18:59.258Z,7.50
2023-05-21T10:21:26.660Z,9.43
2023-05-21T10:23:53.536Z,8.38
2023-05-21T10:26:21.491Z,8.35
2023-05-21T10:28:49.262Z,8.15
2023-05-21T10:31:15.787Z,8.55
2023-05-21T10:33:43.149Z,6.75
2023-05-21T10:36:10.271Z,6.40
2023-05-21T10:38:38.397Z,7.97
2023-05-21T10:41:06.669Z,10.50
2023-05-21T10:43:51.750Z,7.00
2023-05-21T10:46:33.437Z,11.07
2023-05-21T10:49:25.341Z,10.00
2023-05-21T10:52:10.195Z,10.35
2023-05-21T10:54:56.727Z,9.48
2023-05-21T10:57:33.827Z,15.45
2023-05-21T11:00:00.849Z,9.57
2023-05-21T11:02:27.326Z,6.53
2023-05-21T11:05:00.335Z,8.98
2023-05-21T11:07:45.062Z,6.65
2023-05-21T11:10:30.874Z,11.82
2023-05-21T11:13:13.449Z,11.63
2023-05-21T11:15:58.456Z,9.23
2023-05-21T11:18:24.792Z,7.10
2023-05-21T11:20:53.840Z,8.67
2023-05-21T11:23:23.319Z,10.07
2023-05-21T11:26:02.086Z,7.65
2023-05-21T11:28:34.476Z,7.28
2023-05-21T11:31:19.786Z,8.48
2023-05-21T11:33:47.407Z,8.20
2023-05-21T11:36:13.929Z,5.93
2023-05-21T11:38:40.218Z,6.85
2023-05-21T11:41:06.686Z,11.80
2023-05-21T11:43:32.958Z,10.65
2023-05-21T11:45:59.318Z,6.35
2023-05-21T11:48:27.702Z,9.57
2023-05-21T11:50:54.540Z,7.88
2023-05-21T11:53:20.826Z,7.80
2023-05-21T11:55:47.893Z,8.68
2023-05-21T11:58:19.266Z,5.90
2023-05-21T12:00:45.656Z,9.73
2023-05-21T12:03:13.950Z,6.63
2023-05-21T12:05:46.946Z,13.80
2023-05-21T12:08:14.168Z,7.03
2023-05-21T12:10:40.542Z,8.60
2023-05-21T12:13:06.880Z,10.65
2023-05-21T12:15:33.178Z,9.00
2023-05-21T12:18:01.281Z,11.37
2023-05-21T12:20:28.583Z,9.40
2023-05-21T12:22:56.602Z,11.35
2023-05-21T12:25:23.066Z,7.50
2023-05-21T12:27:52.459Z,8.57
2023-05-21T12:30:19.418Z,7.87
2023-05-21T12:32:45.828Z,11.13
2023-05-21T12:35:22.512Z,8.03
2023-05-21T12:37:50.648Z,8.65
2023-05-21T12:40:17.860Z,9.83
2023-05-21T12:42:44.481Z,7.73
2023-05-21T12:45:11.124Z,7.60
2023-05-21T12:47:37.529Z,7.20
2023-05-21T12:50:04.627Z,9.23
2023-05-21T12:52:31.049Z,8.20
2023-05-21T12:54:57.789Z,8.57
2023-05-21T12:57:24.068Z,8.63
2023-05-21T12:59:51.706Z,7.25
2023-05-21T13:02:22.765Z,7.17
2023-05-21T13:04:53.796Z,6.20
2023-05-21T13:07:20.109Z,27.75
2023-05-21T13:09:46.570Z,7.10
2023-05-21T13:12:13.246Z,7.70
2023-05-21T13:14:39.753Z,7.70
2023-05-21T13:17:06.231Z,7.10
2023-05-21T13:19:32.654Z,6.40
2023-05-21T13:21:59.077Z,8.90
2023-05-21T13:24:25.937Z,9.77
2023-05-21T13:26:52.274Z,10.52
2023-05-21T13:29:18.614Z,8.67
2023-05-21T13:31:45.067Z,10.33
2023-05-21T13:34:14.216Z,8.63
2023-05-21T13:36:40.738Z,5.73
2023-05-21T13:39:07.199Z,10.03
2023-05-21T13:41:33.527Z,12.00
2023-05-21T13:43:59.869Z,8.18
2023-05-21T13:46:26.853Z,7.15
2023-05-21T13:48:53.138Z,8.27
2023-05-21T13:51:36.978Z,8.70
2023-05-21T13:54:04.131Z,11.83
2023-05-21T13:56:33.263Z,8.97
2023-05-21T13:58:59.828Z,11.23
2023-05-21T14:01:26.159Z,10.52
2023-05-21T14:03:52.481Z,6.90
2023-05-21T14:06:18.825Z,7.90
2023-05-21T14:08:45.162Z,9.17
2023-05-21T14:11:11.729Z,8.60
2023-05-21T14:13:38.025Z,7.37
2023-05-21T14:16:04.568Z,6.78
2023-05-21T14:18:30.994Z,7.47
2023-05-21T14:20:57.310Z,11.13
2023-05-21T14:23:23.583Z,8.60
2023-05-21T14:25:49.942Z,10.50
2023-05-21T14:28:16.298Z,8.80
2023-05-21T14:30:42.639Z,7.00
2023-05-21T14:33:08.974Z,9.90
2023-05-21T14:35:35.688Z,8.80
2023-05-21T14:38:02.172Z,7.70
2023-05-21T14:40:28.477Z,9.67
2023-05-21T14:42:56.033Z,9.03
2023-05-21T14:45:22.447Z,5.77
2023-05-21T14:47:49.018Z,8.27
2023-05-21T14:50:15.721Z,7.83
2023-05-21T14:52:43.097Z,8.50
2023-05-21T14:55:09.634Z,7.57
2023-05-21T14:57:36.211Z,10.47
2023-05-21T15:00:02.726Z,8.05
2023-05-21T15:02:29.167Z,8.07
2023-05-21T15:04:56.408Z,6.97
2023-05-21T15:07:23.019Z,9.47
2023-05-21T15:09:49.285Z,8.00
2023-05-21T15:12:15.629Z,7.43
2023-05-21T15:14:41.991Z,13.00
2023-05-21T15:17:08.405Z,10.47
2023-05-21T15:19:35.063Z,10.20
2023-05-21T15:22:02.693Z,6.97
2023-05-21T15:24:28.959Z,7.07
2023-05-21T15:26:55.236Z,9.10
2023-05-21T15:29:21.596Z,7.23
2023-05-21T15:31:48.066Z,8.87
2023-05-21T15:34:14.343Z,6.27
2023-05-21T15:36:40.856Z,10.63
2023-05-21T15:39:07.109Z,7.30
2023-05-21T15:41:37.807Z,6.27
2023-05-21T15:44:04.233Z,9.60
2023-05-21T15:46:30.607Z,5.60
2023-05-21T15:48:56.936Z,8.20
2023-05-21T15:51:23.191Z,7.17
2023-05-21T15:53:49.482Z,7.90
2023-05-21T15:56:16.340Z,6.47
2023-05-21T15:58:42.612Z,7.00
2023-05-21T16:01:08.913Z,7.43
2023-05-21T16:03:35.356Z,6.87
2023-05-21T16:06:01.758Z,8.10
2023-05-21T16:08:28.157Z,7.67
2023-05-21T16:10:54.554Z,9.23
2023-05-21T16:13:21.122Z,7.60
2023-05-21T16:15:47.497Z,7.00
2023-05-21T16:18:13.810Z,7.27
2023-05-21T16:20:40.140Z,7.20
2023-05-21T16:23:06.686Z,10.93
2023-05-21T16:25:36.179Z,5.70
2023-05-21T16:28:02.901Z,5.00
2023-05-21T16:30:29.172Z,8.40
2023-05-21T16:32:55.618Z,5.87
2023-05-21T16:35:22.026Z,13.37
2023-05-21T16:37:48.342Z,8.63
2023-05-21T16:40:14.630Z,6.53
2023-05-21T16:42:41.288Z,9.43
2023-05-21T16:45:08.082Z,6.20
2023-05-21T16:47:35.308Z,13.97
2023-05-21T16:50:01.775Z,9.60
2023-05-21T16:52:28.055Z,6.27
2023-05-21T16:54:54.337Z,12.33
2023-05-21T16:57:20.648Z,6.57
2023-05-21T16:59:47.135Z,6.87
2023-05-21T17:02:13.834Z,11.67
2023-05-21T17:04:40.312Z,10.00
2023-05-21T17:07:06.599Z,9.50
2023-05-21T17:09:32.887Z,7.47
2023-05-21T17:11:59.231Z,5.60
2023-05-21T17:14:34.335Z,5.07
2023-05-21T17:17:01.719Z,5.90
2023-05-21T17:19:28.118Z,11.77
2023-05-21T17:21:55.142Z,8.03
2023-05-21T17:24:21.421Z,11.30
2023-05-21T17:26:47.732Z,15.93
2023-05-21T17:29:14.039Z,9.30
2023-05-21T17:31:40.504Z,9.77
2023-05-21T17:34:06.904Z,7.60
2023-05-21T17:36:34.712Z,6.83
2023-05-21T17:39:02.179Z,8.87
2023-05-21T17:41:28.466Z,7.17
2023-05-21T17:43:54.767Z,6.23
2023-05-21T17:46:21.123Z,7.93
2023-05-21T17:48:47.409Z,7.93
2023-05-21T17:51:14.001Z,6.73
2023-05-21T17:53:41.209Z,8.03
2023-05-21T17:56:07.799Z,9.07
2023-05-21T17:58:34.628Z,11.67
2023-05-21T18:01:00.970Z,8.53
2023-05-21T18:03:27.699Z,9.00
2023-05-21T18:05:54.017Z,6.17
2023-05-21T18:08:20.361Z,6.30
2023-05-21T18:10:47.986Z,5.43
2023-05-21T18:13:14.548Z,7.77
2023-05-21T18:15:40.884Z,5.37
2023-05-21T18:18:07.466Z,8.10
2023-05-21T18:20:34.358Z,5.97
2023-05-21T18:23:00.728Z,7.80
2023-05-21T18:25:26.994Z,6.53
2023-05-21T18:27:53.284Z,6.83
2023-05-21T18:30:19.652Z,9.60
2023-05-21T18:32:45.959Z,6.70
2023-05-21T18:35:13.780Z,5.90
2023-05-21T18:37:42.897Z,7.20
2023-05-21T18:40:09.444Z,9.10
2023-05-21T18:42:35.808Z,8.47
2023-05-21T18:45:09.056Z,6.30
2023-05-21T18:47:35.687Z,7.93
2023-05-21T18:50:02.106Z,5.40
2023-05-21T18:52:28.431Z,13.70
2023-05-21T18:54:54.748Z,9.37
2023-05-21T18:57:21.074Z,6.77
2023-05-21T18:59:47.354Z,5.20
2023-05-21T19:02:13.752Z,6.43
2023-05-21T19:04:40.070Z,6.17
2023-05-21T19:07:06.386Z,9.67
2023-05-21T19:09:32.761Z,5.17
2023-05-21T19:12:00.582Z,4.20
2023-05-21T19:14:26.903Z,4.67
2023-05-21T19:16:53.190Z,6.60
2023-05-21T19:19:19.480Z,6.70
2023-05-21T19:21:45.864Z,6.40
2023-05-21T19:24:12.181Z,7.27
2023-05-21T19:26:38.553Z,10.87
2023-05-21T19:29:04.874Z,7.63
2023-05-21T19:31:31.155Z,5.87
2023-05-21T19:33:57.505Z,9.13
2023-05-21T19:36:24.122Z,6.33
2023-05-21T19:38:50.637Z,5.83
2023-05-21T19:41:17.470Z,7.17
2023-05-21T19:43:44.543Z,5.20
2023-05-21T19:46:11.279Z,5.93
2023-05-21T19:48:37.719Z,5.50
2023-05-21T19:51:04.082Z,6.17
2023-05-21T19:53:30.654Z,7.90
2023-05-21T19:55:56.953Z,7.30
2023-05-21T19:58:26.781Z,8.40
2023-05-21T20:00:55.688Z,5.97
2023-05-21T20:03:22.028Z,5.40
2023-05-21T20:05:48.303Z,5.53
2023-05-21T20:08:14.905Z,5.80
2023-05-21T20:10:41.254Z,6.47
2023-05-21T20:13:08.760Z,8.70
2023-05-21T20:15:35.536Z,6.73
2023-05-21T20:18:02.229Z,6.17
2023-05-21T20:20:28.589Z,7.20
2023-05-21T20:22:56.734Z,8.10
2023-05-21T20:25:22.992Z,7.20
2023-05-21T20:27:49.311Z,6.33
2023-05-21T20:30:16.042Z,6.60
2023-05-21T20:32:42.530Z,7.50
2023-05-21T20:35:09.124Z,7.93
2023-05-21T20:37:36.793Z,7.27
2023-05-21T20:40:03.120Z,5.67
2023-05-21T20:42:34.102Z,7.87
2023-05-21T20:45:01.818Z,6.17
2023-05-21T20:47:29.931Z,10.63
2023-05-21T20:49:57.730Z,6.73
2023-05-21T20:52:24.858Z,6.53
2023-05-21T20:54:54.479Z,8.17
2023-05-21T20:57:22.403Z,10.47
2023-05-21T20:59:48.757Z,4.80
2023-05-21T21:02:16.498Z,9.37
2023-05-21T21:04:42.794Z,9.50
2023-05-21T21:07:10.021Z,6.83
2023-05-21T21:09:37.064Z,7.40
2023-05-21T21:12:14.421Z,6.60
2023-05-21T21:14:47.844Z,5.60
2023-05-21T21:17:14.167Z,5.80
2023-05-21T21:19:40.484Z,5.93
2023-05-21T21:22:06.825Z,6.40
2023-05-21T21:24:33.149Z,4.73
2023-05-21T21:27:00.304Z,7.03
2023-05-21T21:29:27.171Z,6.57
2023-05-21T21:31:53.559Z,7.37
2023-05-21T21:34:20.555Z,9.20
2023-05-21T21:36:47.075Z,6.87
2023-05-21T21:39:13.370Z,5.87
2023-05-21T21:41:41.570Z,8.67
2023-05-21T21:44:07.909Z,4.90
2023-05-21T21:46:34.298Z,7.33
2023-05-21T21:49:00.799Z,8.30
2023-05-21T21:51:27.100Z,5.53
2023-05-21T21:53:53.369Z,9.57
2023-05-21T21:56:19.705Z,6.63
2023-05-21T21:58:46.169Z,5.63
2023-05-21T22:01:12.499Z,8.10
2023-05-21T22:03:38.800Z,7.60
2023-05-21T22:06:05.891Z,11.63
2023-05-21T22:08:32.172Z,6.90
2023-05-21T22:10:58.903Z,5.93
2023-05-21T22:13:26.539Z,5.60
2023-05-21T22:15:55.046Z,8.90
2023-05-21T22:18:36.011Z,6.77
2023-05-21T22:21:09.710Z,6.93
2023-05-21T22:23:36.699Z,7.40
2023-05-21T22:26:03.410Z,5.67
2023-05-21T22:28:29.715Z,8.37
2023-05-21T22:30:55.995Z,5.90
2023-05-21T22:33:22.538Z,8.90
2023-05-21T22:35:48.899Z,7.57
2023-05-21T22:38:15.173Z,6.03
2023-05-21T22:40:41.483Z,6.77
2023-05-21T22:43:07.819Z,5.80
2023-05-21T22:45:38.364Z,6.37
2023-05-21T22:48:07.270Z,5.80
2023-05-21T22:50:33.784Z,5.90
2023-05-21T22:53:00.234Z,6.77
2023-05-21T22:55:26.504Z,9.13
2023-05-21T22:57:52.766Z,7.17
2023-05-21T23:00:19.339Z,5.10
2023-05-21T23:02:46.701Z,5.30
2023-05-21T23:05:13.260Z,7.57
2023-05-21T23:07:39.649Z,5.60
2023-05-21T23:10:06.144Z,7.23
2023-05-21T23:12:32.461Z,7.00
2023-05-21T23:14:58.875Z,7.70
2023-05-21T23:17:25.303Z,5.60
2023-05-21T23:19:52.976Z,5.37
2023-05-21T23:22:19.581Z,4.97
2023-05-21T23:24:45.921Z,7.20
2023-05-21T23:27:12.231Z,5.70
2023-05-21T23:29:38.499Z,5.50
2023-05-21T23:32:05.222Z,6.37
2023-05-21T23:34:31.738Z,5.10
2023-05-21T23:37:00.306Z,4.77
2023-05-21T23:39:28.550Z,5.13
2023-05-21T23:41:55.030Z,6.00
2023-05-21T23:44:21.410Z,4.90
2023-05-21T23:46:47.778Z,7.10
2023-05-21T23:49:14.481Z,7.23
2023-05-21T23:51:40.803Z,7.10
2023-05-21T23:54:08.110Z,6.43
2023-05-21T23:56:34.485Z,7.00
2023-05-21T23:59:00.768Z,6.93
